Time;durP1;ratioP1;P1;durP2;ratioP2;P2;SDS_P1;SDS_P2;PMS_P1;PMS_P2;Temp;Humidity;BMP_temperature;BMP_pressure;BME280_temperature;BME280_humidity;BME280_pressure;Samples;Min_cycle;Max_cycle;Signal;HPM_P1;HPM_P2
2022/04/02 00:01:04;;;;;;;5.00;1.80;;;;;;;;;;4980660;28;20320;-59
2022/04/02 00:03:30;;;;;;;3.87;1.87;;;;;;;;;;4983369;28;20308;-59
2022/04/02 00:05:55;;;;;;;3.83;1.90;;;;;;;;;;4982773;28;20229;-59
2022/04/02 00:08:21;;;;;;;4.10;1.73;;;;;;;;;;5001935;28;20307;-59
2022/04/02 00:10:46;;;;;;;5.27;2.00;;;;;;;;;;5002428;28;20368;-59
2022/04/02 00:13:11;;;;;;;4.10;2.10;;;;;;;;;;5001626;28;20239;-59
2022/04/02 00:15:37;;;;;;;4.17;1.90;;;;;;;;;;4997867;28;20545;-59
2022/04/02 00:18:02;;;;;;;3.90;1.70;;;;;;;;;;4972509;28;20952;-59
2022/04/02 00:20:27;;;;;;;4.10;1.90;;;;;;;;;;4975342;28;20596;-59
2022/04/02 00:25:36;;;;;;;6.83;2.80;;;;;;;;;;5001140;28;20235;-59
2022/04/02 00:28:02;;;;;;;5.30;3.00;;;;;;;;;;4983479;28;20217;-58
2022/04/02 00:30:27;;;;;;;5.00;2.10;;;;;;;;;;5002067;28;20209;-59
2022/04/02 00:32:52;;;;;;;3.63;1.90;;;;;;;;;;5001259;28;20236;-59
2022/04/02 00:35:18;;;;;;;3.83;1.83;;;;;;;;;;5002077;28;20327;-59
2022/04/02 00:37:43;;;;;;;4.10;2.20;;;;;;;;;;4995745;28;20228;-59
2022/04/02 00:40:08;;;;;;;4.87;2.10;;;;;;;;;;4975708;28;20575;-59
2022/04/02 00:42:34;;;;;;;5.23;2.03;;;;;;;;;;4993920;28;20209;-59
2022/04/02 00:44:59;;;;;;;3.57;2.07;;;;;;;;;;4996420;28;20710;-59
2022/04/02 00:47:24;;;;;;;6.63;2.30;;;;;;;;;;4994268;28;20331;-59
2022/04/02 00:49:57;;;;;;;4.30;2.17;;;;;;;;;;4982902;28;20299;-59
2022/04/02 00:52:24;;;;;;;4.33;2.00;;;;;;;;;;5001391;28;20232;-59
2022/04/02 00:54:49;;;;;;;4.17;2.30;;;;;;;;;;5001595;28;20217;-59
2022/04/02 00:57:15;;;;;;;3.97;2.03;;;;;;;;;;5001635;28;20220;-59
2022/04/02 00:59:40;;;;;;;8.53;2.40;;;;;;;;;;4988236;28;20224;-59
2022/04/02 01:02:06;;;;;;;6.10;2.40;;;;;;;;;;4973481;28;20267;-59
2022/04/02 01:04:31;;;;;;;4.77;2.03;;;;;;;;;;4974727;28;20789;-59
2022/04/02 01:06:57;;;;;;;5.37;2.10;;;;;;;;;;4975689;28;20213;-59
2022/04/02 01:09:22;;;;;;;5.07;2.10;;;;;;;;;;4980958;28;20224;-59
2022/04/02 01:11:48;;;;;;;4.57;1.93;;;;;;;;;;4982870;28;20232;-59
2022/04/02 01:14:14;;;;;;;3.97;2.00;;;;;;;;;;5001271;28;20209;-59
2022/04/02 01:16:39;;;;;;;4.57;2.20;;;;;;;;;;5004512;28;20223;-59
2022/04/02 01:19:04;;;;;;;4.77;2.00;;;;;;;;;;5005071;28;20220;-59
2022/04/02 01:21:30;;;;;;;4.67;2.20;;;;;;;;;;5005188;28;20212;-59
2022/04/02 01:23:55;;;;;;;7.13;2.17;;;;;;;;;;5000039;28;20319;-59
2022/04/02 01:26:21;;;;;;;4.80;1.90;;;;;;;;;;4992151;28;20217;-59
2022/04/02 01:28:53;;;;;;;3.37;1.87;;;;;;;;;;4977356;28;20288;-59
2022/04/02 01:31:18;;;;;;;4.33;2.13;;;;;;;;;;4982935;28;20613;-59
2022/04/02 01:33:44;;;;;;;4.77;1.97;;;;;;;;;;4985947;28;20221;-59
2022/04/02 01:36:09;;;;;;;4.63;2.17;;;;;;;;;;4984747;28;20248;-59
2022/04/02 01:38:34;;;;;;;5.00;2.10;;;;;;;;;;4986139;28;20721;-59
2022/04/02 01:40:59;;;;;;;4.53;2.20;;;;;;;;;;4986484;28;20244;-59
2022/04/02 01:43:25;;;;;;;6.70;2.10;;;;;;;;;;4984608;28;20217;-59
2022/04/02 01:45:55;;;;;;;3.43;2.00;;;;;;;;;;4982516;28;20221;-59
2022/04/02 01:48:20;;;;;;;3.87;2.10;;;;;;;;;;4982649;28;21059;-59
2022/04/02 01:50:45;;;;;;;3.47;1.97;;;;;;;;;;4976689;28;20252;-59
2022/04/02 01:53:11;;;;;;;4.83;2.00;;;;;;;;;;4980650;28;20228;-59
2022/04/02 01:55:36;;;;;;;5.03;2.07;;;;;;;;;;4985343;28;20310;-59
2022/04/02 01:58:01;;;;;;;3.80;1.90;;;;;;;;;;4984700;28;20225;-59
2022/04/02 02:00:27;;;;;;;4.80;2.00;;;;;;;;;;4985080;28;20220;-59
2022/04/02 02:02:52;;;;;;;4.00;1.90;;;;;;;;;;4993595;28;20224;-59
2022/04/02 02:05:17;;;;;;;4.67;2.27;;;;;;;;;;5003682;28;20542;-59
2022/04/02 02:07:49;;;;;;;5.00;2.00;;;;;;;;;;5004460;28;20221;-59
2022/04/02 02:10:14;;;;;;;4.20;1.93;;;;;;;;;;4995922;28;20262;-59
2022/04/02 02:12:39;;;;;;;6.37;2.27;;;;;;;;;;4996293;28;20228;-59
2022/04/02 02:15:05;;;;;;;4.57;2.10;;;;;;;;;;4996608;28;20232;-59
2022/04/02 02:17:30;;;;;;;4.30;2.40;;;;;;;;;;5003900;28;20220;-59
2022/04/02 02:19:55;;;;;;;4.07;2.00;;;;;;;;;;5003274;28;20224;-59
2022/04/02 02:22:21;;;;;;;4.73;2.00;;;;;;;;;;5004041;28;20899;-59
2022/04/02 02:24:46;;;;;;;6.10;2.20;;;;;;;;;;5003908;28;20575;-59
2022/04/02 02:27:11;;;;;;;3.43;2.00;;;;;;;;;;4991661;28;20224;-58
2022/04/02 02:29:36;;;;;;;4.43;2.27;;;;;;;;;;4984824;28;20217;-59
2022/04/02 02:32:02;;;;;;;5.27;1.70;;;;;;;;;;4975858;28;20441;-59
2022/04/02 02:37:11;;;;;;;4.23;1.90;;;;;;;;;;4995548;28;20215;-59
2022/04/02 02:39:36;;;;;;;3.60;1.87;;;;;;;;;;4982079;28;20213;-59
2022/04/02 02:42:01;;;;;;;3.40;1.90;;;;;;;;;;4984639;28;20572;-59
2022/04/02 02:44:27;;;;;;;6.10;2.03;;;;;;;;;;4984669;28;20219;-59
2022/04/02 02:46:52;;;;;;;4.73;2.23;;;;;;;;;;4983602;28;20209;-59
2022/04/02 02:49:17;;;;;;;3.70;1.90;;;;;;;;;;4984357;28;20227;-59
2022/04/02 02:51:42;;;;;;;5.87;1.83;;;;;;;;;;4984134;28;20264;-59
2022/04/02 02:54:08;;;;;;;5.63;1.80;;;;;;;;;;4979909;28;20291;-59
2022/04/02 02:56:33;;;;;;;4.20;1.90;;;;;;;;;;4976322;28;20213;-59
2022/04/02 02:58:59;;;;;;;4.50;1.87;;;;;;;;;;4976646;28;20275;-59
2022/04/02 03:01:24;;;;;;;3.10;1.83;;;;;;;;;;4978692;28;20297;-59
2022/04/02 03:03:49;;;;;;;4.90;2.00;;;;;;;;;;4983953;28;20668;-59
2022/04/02 03:06:15;;;;;;;6.37;2.10;;;;;;;;;;5002469;28;20216;-59
2022/04/02 03:08:40;;;;;;;3.33;1.83;;;;;;;;;;5002849;28;20213;-59
2022/04/02 03:11:06;;;;;;;3.43;1.67;;;;;;;;;;5002897;28;20228;-59
2022/04/02 03:13:32;;;;;;;4.43;1.83;;;;;;;;;;5003489;28;21192;-59
2022/04/02 03:15:57;;;;;;;4.80;1.80;;;;;;;;;;5002009;28;20667;-59
2022/04/02 03:18:22;;;;;;;4.60;1.93;;;;;;;;;;4995056;28;20438;-59
2022/04/02 03:20:47;;;;;;;3.27;1.70;;;;;;;;;;4995584;28;20304;-59
2022/04/02 03:23:13;;;;;;;3.00;1.70;;;;;;;;;;4994850;28;20601;-59
2022/04/02 03:25:38;;;;;;;4.93;1.70;;;;;;;;;;5002982;28;20220;-59
2022/04/02 03:28:05;;;;;;;4.23;1.70;;;;;;;;;;4983888;28;20749;-59
2022/04/02 03:30:30;;;;;;;3.13;1.77;;;;;;;;;;4983874;28;20339;-59
2022/04/02 03:32:56;;;;;;;6.07;2.10;;;;;;;;;;4983215;28;20668;-59
2022/04/02 03:35:21;;;;;;;4.50;1.87;;;;;;;;;;4982687;28;20205;-59
2022/04/02 03:37:47;;;;;;;3.50;1.70;;;;;;;;;;4983310;28;20848;-59
2022/04/02 03:40:14;;;;;;;4.73;2.03;;;;;;;;;;4978767;28;20207;-59
2022/04/02 03:42:40;;;;;;;4.77;1.77;;;;;;;;;;4975167;28;20316;-59
2022/04/02 03:45:05;;;;;;;4.47;2.30;;;;;;;;;;4975641;28;20255;-59
2022/04/02 03:47:31;;;;;;;3.60;1.83;;;;;;;;;;4981472;28;20221;-59
2022/04/02 03:49:57;;;;;;;5.10;2.17;;;;;;;;;;4982383;28;20256;-59
2022/04/02 03:52:22;;;;;;;5.27;1.97;;;;;;;;;;4982576;28;20237;-59
2022/04/02 03:54:47;;;;;;;4.63;2.10;;;;;;;;;;4983644;28;20244;-59
2022/04/02 03:57:13;;;;;;;4.97;1.97;;;;;;;;;;4982088;28;20217;-59
2022/04/02 03:59:39;;;;;;;5.60;2.20;;;;;;;;;;4988698;28;20842;-59
2022/04/02 04:02:05;;;;;;;4.53;2.40;;;;;;;;;;4979227;28;20220;-59
2022/04/02 04:04:31;;;;;;;4.47;2.00;;;;;;;;;;4974861;28;20213;-59
2022/04/02 04:06:56;;;;;;;5.27;1.90;;;;;;;;;;4994107;28;20204;-59
2022/04/02 04:09:21;;;;;;;4.60;1.90;;;;;;;;;;4997798;28;20282;-60
2022/04/02 04:11:47;;;;;;;3.57;2.13;;;;;;;;;;4999097;28;20228;-59
2022/04/02 04:14:13;;;;;;;4.30;1.90;;;;;;;;;;4983447;28;20260;-59
2022/04/02 04:16:38;;;;;;;3.23;1.77;;;;;;;;;;5002322;28;20213;-59
2022/04/02 04:19:04;;;;;;;5.13;1.93;;;;;;;;;;5001652;28;20228;-59
2022/04/02 04:21:29;;;;;;;5.63;2.30;;;;;;;;;;5002474;28;20293;-59
2022/04/02 04:23:54;;;;;;;4.83;2.10;;;;;;;;;;5001759;28;20213;-59
2022/04/02 04:26:19;;;;;;;4.93;1.83;;;;;;;;;;4988969;28;20209;-59
2022/04/02 04:28:45;;;;;;;3.83;1.70;;;;;;;;;;4976718;28;20216;-59
2022/04/02 04:31:10;;;;;;;4.60;1.93;;;;;;;;;;4975655;28;20229;-59
2022/04/02 04:33:35;;;;;;;5.07;2.00;;;;;;;;;;4982391;28;20221;-59
2022/04/02 04:36:01;;;;;;;4.50;2.03;;;;;;;;;;4982381;28;20217;-59
2022/04/02 04:38:26;;;;;;;3.73;1.97;;;;;;;;;;4982834;28;20232;-59
2022/04/02 04:40:51;;;;;;;7.10;2.40;;;;;;;;;;4984162;28;20829;-59
2022/04/02 04:43:17;;;;;;;5.33;2.00;;;;;;;;;;4982892;28;20244;-59
2022/04/02 04:45:42;;;;;;;4.73;2.30;;;;;;;;;;4982059;28;20267;-59
2022/04/02 04:48:07;;;;;;;5.33;1.80;;;;;;;;;;4974295;28;20243;-59
2022/04/02 04:50:34;;;;;;;3.47;2.00;;;;;;;;;;4977284;28;20240;-59
2022/04/02 04:52:59;;;;;;;3.77;1.73;;;;;;;;;;4996013;28;20232;-59
2022/04/02 04:55:25;;;;;;;5.10;2.30;;;;;;;;;;5002989;28;20709;-59
2022/04/02 04:57:50;;;;;;;3.77;1.83;;;;;;;;;;5004882;28;20231;-59
2022/04/02 05:00:15;;;;;;;4.67;2.10;;;;;;;;;;4985995;28;20768;-59
2022/04/02 05:02:44;;;;;;;5.60;2.40;;;;;;;;;;4986539;28;20217;-59
2022/04/02 05:05:12;;;;;;;4.90;2.10;;;;;;;;;;5005476;28;20300;-59
2022/04/02 05:07:38;;;;;;;5.70;2.40;;;;;;;;;;5005037;28;20213;-59
2022/04/02 05:10:03;;;;;;;3.97;2.20;;;;;;;;;;5000531;28;20219;-59
2022/04/02 05:12:28;;;;;;;6.93;2.03;;;;;;;;;;4996235;28;20238;-59
2022/04/02 05:14:54;;;;;;;4.73;2.23;;;;;;;;;;4996798;28;20220;-59
2022/04/02 05:17:19;;;;;;;4.63;1.90;;;;;;;;;;5000404;28;20318;-59
2022/04/02 05:19:45;;;;;;;3.83;1.90;;;;;;;;;;5005126;28;20687;-59
2022/04/02 05:22:10;;;;;;;5.37;2.23;;;;;;;;;;5004193;28;20220;-59
2022/04/02 05:24:36;;;;;;;5.13;1.90;;;;;;;;;;5005230;28;20232;-59
2022/04/02 05:27:01;;;;;;;5.63;2.07;;;;;;;;;;4994431;28;20220;-59
2022/04/02 05:29:26;;;;;;;5.00;2.20;;;;;;;;;;4985758;28;20230;-59
2022/04/02 05:31:52;;;;;;;5.33;2.43;;;;;;;;;;4985607;28;20233;-59
2022/04/02 05:34:17;;;;;;;5.90;2.03;;;;;;;;;;4977598;28;20225;-59
2022/04/02 05:36:43;;;;;;;6.27;1.93;;;;;;;;;;4977395;28;20246;-59
2022/04/02 05:39:08;;;;;;;5.77;2.20;;;;;;;;;;4979087;28;20214;-59
2022/04/02 05:41:33;;;;;;;4.97;2.30;;;;;;;;;;4986396;28;20212;-59
2022/04/02 05:43:59;;;;;;;6.73;2.77;;;;;;;;;;4985340;28;20217;-59
2022/04/02 05:46:24;;;;;;;4.30;2.47;;;;;;;;;;4985361;28;20291;-59
2022/04/02 05:48:49;;;;;;;5.37;2.50;;;;;;;;;;4984937;28;20206;-59
2022/04/02 05:51:14;;;;;;;4.97;2.43;;;;;;;;;;4984806;28;20232;-59
2022/04/02 05:53:41;;;;;;;6.23;2.70;;;;;;;;;;4986042;28;20221;-59
2022/04/02 05:56:06;;;;;;;6.73;2.43;;;;;;;;;;4997485;28;20928;-59
2022/04/02 05:58:32;;;;;;;5.43;2.40;;;;;;;;;;4991738;28;20213;-59
2022/04/02 06:00:57;;;;;;;5.23;2.20;;;;;;;;;;4977746;28;20235;-59
2022/04/02 06:03:22;;;;;;;5.33;2.33;;;;;;;;;;4981621;28;20244;-59
2022/04/02 06:05:48;;;;;;;5.67;2.70;;;;;;;;;;5002925;28;20703;-59
2022/04/02 06:08:13;;;;;;;4.03;2.30;;;;;;;;;;5004219;28;20216;-59
2022/04/02 06:10:39;;;;;;;6.50;2.57;;;;;;;;;;5004208;28;20208;-59
2022/04/02 06:13:04;;;;;;;5.40;2.63;;;;;;;;;;5003941;28;20266;-59
2022/04/02 06:15:30;;;;;;;6.70;2.20;;;;;;;;;;5004628;28;20232;-59
2022/04/02 06:17:55;;;;;;;5.47;2.40;;;;;;;;;;5000113;28;20213;-59
2022/04/02 06:20:20;;;;;;;5.07;2.10;;;;;;;;;;4996235;28;20224;-59
2022/04/02 06:22:45;;;;;;;6.13;2.50;;;;;;;;;;4996547;28;20259;-59
2022/04/02 06:25:11;;;;;;;5.70;2.30;;;;;;;;;;4998057;28;20208;-59
2022/04/02 06:27:42;;;;;;;4.70;2.87;;;;;;;;;;4989111;28;20360;-59
2022/04/02 06:30:09;;;;;;;5.63;2.50;;;;;;;;;;5002479;28;20220;-59
2022/04/02 06:32:34;;;;;;;6.80;2.23;;;;;;;;;;5002994;28;20267;-59
2022/04/02 06:35:00;;;;;;;6.17;2.30;;;;;;;;;;5004294;28;20232;-59
2022/04/02 06:37:25;;;;;;;5.30;2.67;;;;;;;;;;5001790;28;20220;-59
2022/04/02 06:39:51;;;;;;;5.60;2.80;;;;;;;;;;4984219;28;20217;-59
2022/04/02 06:42:18;;;;;;;5.93;2.53;;;;;;;;;;4976323;28;20803;-59
2022/04/02 06:44:43;;;;;;;6.50;2.53;;;;;;;;;;4976820;28;20235;-59
2022/04/02 06:47:08;;;;;;;6.33;2.50;;;;;;;;;;4976559;28;20888;-61
2022/04/02 06:49:33;;;;;;;6.00;2.77;;;;;;;;;;4984142;28;20224;-61
2022/04/02 06:51:59;;;;;;;6.10;2.80;;;;;;;;;;4983828;28;20792;-61
2022/04/02 06:54:24;;;;;;;4.37;2.50;;;;;;;;;;4983321;28;20303;-60
2022/04/02 06:56:50;;;;;;;4.93;2.80;;;;;;;;;;4984911;28;20378;-59
2022/04/02 06:59:16;;;;;;;5.85;3.10;;;;;;;;;;4983511;28;20924;-60
2022/04/02 07:01:41;;;;;;;5.87;2.80;;;;;;;;;;4989692;28;20300;-61
2022/04/02 07:04:06;;;;;;;6.80;2.87;;;;;;;;;;5011624;28;20279;-62
2022/04/02 07:06:34;;;;;;;6.00;3.00;;;;;;;;;;5012549;28;20552;-63
2022/04/02 07:08:59;;;;;;;5.60;3.00;;;;;;;;;;5013516;28;20209;-62
2022/04/02 07:11:24;;;;;;;6.83;3.03;;;;;;;;;;5012928;28;20228;-61
2022/04/02 07:13:50;;;;;;;6.07;2.80;;;;;;;;;;5011790;28;20212;-60
2022/04/02 07:16:16;;;;;;;7.00;2.63;;;;;;;;;;5012808;28;20271;-61
2022/04/02 07:18:42;;;;;;;7.37;2.70;;;;;;;;;;5013165;28;20219;-61
2022/04/02 07:21:07;;;;;;;5.30;2.80;;;;;;;;;;5012243;28;20300;-60
2022/04/02 07:23:32;;;;;;;4.80;2.70;;;;;;;;;;5013186;28;20220;-61
2022/04/02 07:25:57;;;;;;;6.43;3.00;;;;;;;;;;5012263;28;20675;-61
2022/04/02 07:28:25;;;;;;;6.00;2.70;;;;;;;;;;5011159;28;20205;-60
2022/04/02 07:30:50;;;;;;;4.77;2.90;;;;;;;;;;5012624;28;20232;-61
2022/04/02 07:33:16;;;;;;;7.37;3.10;;;;;;;;;;5012015;28;20229;-62
2022/04/02 07:35:44;;;;;;;4.73;2.90;;;;;;;;;;5012348;28;20600;-63
2022/04/02 07:38:12;;;;;;;6.33;2.80;;;;;;;;;;5012612;28;20350;-60
2022/04/02 07:40:43;;;;;;;7.97;2.97;;;;;;;;;;5012691;28;20223;-59
2022/04/02 07:43:16;;;;;;;5.43;2.80;;;;;;;;;;5011139;28;20254;-65
2022/04/02 07:45:42;;;;;;;6.17;3.10;;;;;;;;;;5013194;28;20587;-64
2022/04/02 07:48:08;;;;;;;8.30;2.87;;;;;;;;;;5012426;28;20303;-64
2022/04/02 07:50:34;;;;;;;5.83;2.90;;;;;;;;;;5012077;28;20307;-64
2022/04/02 07:52:59;;;;;;;5.83;2.80;;;;;;;;;;5011682;28;20694;-64
2022/04/02 07:55:24;;;;;;;6.53;3.20;;;;;;;;;;5011782;28;20214;-65
2022/04/02 07:57:50;;;;;;;6.47;3.23;;;;;;;;;;5011477;28;20295;-64
2022/04/02 08:00:16;;;;;;;5.97;2.77;;;;;;;;;;5012104;28;20219;-64
2022/04/02 08:02:43;;;;;;;7.77;2.87;;;;;;;;;;5011665;28;20216;-64
2022/04/02 08:05:10;;;;;;;5.93;2.80;;;;;;;;;;5012009;28;20208;-64
2022/04/02 08:07:36;;;;;;;7.97;3.07;;;;;;;;;;4993114;28;20217;-64
2022/04/02 08:10:05;;;;;;;7.10;3.43;;;;;;;;;;5008660;28;20219;-63
2022/04/02 08:12:30;;;;;;;6.77;3.07;;;;;;;;;;5012326;28;20251;-64
2022/04/02 08:14:55;;;;;;;7.00;3.20;;;;;;;;;;5011133;28;20276;-65
2022/04/02 08:17:21;;;;;;;5.10;3.10;;;;;;;;;;5011807;28;20208;-65
2022/04/02 08:19:48;;;;;;;7.37;3.87;;;;;;;;;;5012743;28;20291;-65
2022/04/02 08:22:16;;;;;;;6.63;2.97;;;;;;;;;;5012313;28;20216;-65
2022/04/02 08:24:42;;;;;;;5.30;3.10;;;;;;;;;;5014547;28;20687;-65
2022/04/02 08:27:10;;;;;;;6.30;3.43;;;;;;;;;;5016201;28;20212;-65
2022/04/02 08:29:36;;;;;;;9.27;3.33;;;;;;;;;;5015159;28;20326;-60
2022/04/02 08:32:03;;;;;;;7.87;3.87;;;;;;;;;;5015508;28;20763;-61
2022/04/02 08:34:36;;;;;;;7.37;3.60;;;;;;;;;;5015087;28;20204;-62
2022/04/02 08:37:03;;;;;;;5.93;3.23;;;;;;;;;;5014943;28;20220;-61
2022/04/02 08:39:32;;;;;;;7.33;3.60;;;;;;;;;;5014454;28;20278;-62
2022/04/02 08:42:00;;;;;;;6.37;3.40;;;;;;;;;;5015084;28;20209;-62
2022/04/02 08:44:29;;;;;;;7.80;3.23;;;;;;;;;;5015884;28;20220;-63
2022/04/02 08:46:54;;;;;;;7.87;3.50;;;;;;;;;;5015291;28;20262;-61
2022/04/02 08:49:22;;;;;;;7.00;3.37;;;;;;;;;;5014606;28;20311;-63
2022/04/02 08:51:48;;;;;;;7.97;3.60;;;;;;;;;;5015264;28;20236;-63
2022/04/02 08:54:21;;;;;;;6.70;3.30;;;;;;;;;;5015582;28;20706;-63
2022/04/02 08:56:47;;;;;;;6.90;3.15;;;;;;;;;;5015960;28;20235;-63
2022/04/02 08:59:15;;;;;;;8.13;3.37;;;;;;;;;;5014568;28;20712;-63
2022/04/02 09:01:41;;;;;;;7.43;3.50;;;;;;;;;;5016058;28;20362;-63
2022/04/02 09:04:12;;;;;;;8.30;3.57;;;;;;;;;;5030778;28;20216;-63
2022/04/02 09:06:44;;;;;;;11.57;5.03;;;;;;;;;;5013895;28;20683;-63
2022/04/02 09:09:15;;;;;;;10.17;4.73;;;;;;;;;;5015472;28;20279;-62
2022/04/02 09:11:56;;;;;;;14.05;5.90;;;;;;;;;;5015487;28;20251;-63
2022/04/02 09:14:41;;;;;;;7.63;3.80;;;;;;;;;;5012966;28;20204;-63
2022/04/02 09:17:17;;;;;;;7.80;3.40;;;;;;;;;;5015077;28;20224;-62
2022/04/02 09:19:52;;;;;;;6.77;3.43;;;;;;;;;;5015413;28;20288;-63
2022/04/02 09:22:24;;;;;;;7.67;3.40;;;;;;;;;;5014187;28;20262;-63
2022/04/02 09:25:04;;;;;;;11.13;3.53;;;;;;;;;;5015581;28;20220;-63
2022/04/02 09:27:48;;;;;;;6.90;3.55;;;;;;;;;;5014395;28;20263;-63
2022/04/02 09:30:18;;;;;;;7.50;3.30;;;;;;;;;;5014704;28;20604;-62
2022/04/02 09:33:01;;;;;;;5.40;3.40;;;;;;;;;;5015581;28;20224;-63
2022/04/02 09:35:32;;;;;;;5.63;3.10;;;;;;;;;;5012104;28;20685;-63
2022/04/02 09:38:09;;;;;;;7.03;3.20;;;;;;;;;;5015331;28;20255;-63
2022/04/02 09:40:38;;;;;;;5.60;3.22;;;;;;;;;;5014896;28;20208;-63
2022/04/02 09:43:08;;;;;;;7.63;3.20;;;;;;;;;;5013992;28;20259;-62
2022/04/02 09:45:38;;;;;;;4.90;2.70;;;;;;;;;;5014997;28;20213;-63
2022/04/02 09:48:06;;;;;;;5.93;3.00;;;;;;;;;;5012611;28;20240;-62
2022/04/02 09:50:32;;;;;;;5.50;2.83;;;;;;;;;;5014802;28;20229;-63
2022/04/02 09:52:58;;;;;;;5.35;3.05;;;;;;;;;;5015023;28;20227;-63
2022/04/02 09:55:24;;;;;;;5.22;2.70;;;;;;;;;;5013790;28;20566;-63
2022/04/02 09:57:53;;;;;;;7.00;2.90;;;;;;;;;;5013626;28;20208;-63
2022/04/02 10:00:20;;;;;;;4.80;2.78;;;;;;;;;;4994648;28;20292;-63
2022/04/02 10:03:04;;;;;;;5.78;2.50;;;;;;;;;;4994623;28;20344;-64
2022/04/02 10:05:44;;;;;;;8.63;2.20;;;;;;;;;;4995134;28;20217;-63
2022/04/02 10:08:11;;;;;;;4.75;2.05;;;;;;;;;;4994721;28;20213;-61
2022/04/02 10:10:37;;;;;;;6.05;2.88;;;;;;;;;;4994387;28;20221;-62
2022/04/02 10:13:02;;;;;;;4.03;2.15;;;;;;;;;;5006084;28;20278;-62
2022/04/02 10:15:27;;;;;;;4.88;2.35;;;;;;;;;;5014561;28;20686;-62
2022/04/02 10:17:53;;;;;;;5.07;2.40;;;;;;;;;;5013828;28;20235;-62
2022/04/02 10:20:20;;;;;;;6.47;2.50;;;;;;;;;;5014229;28;20240;-62
2022/04/02 10:22:45;;;;;;;3.22;1.85;;;;;;;;;;5014526;28;20314;-62
2022/04/02 10:25:12;;;;;;;3.00;2.00;;;;;;;;;;5013473;28;20260;-62
2022/04/02 10:27:38;;;;;;;3.63;2.10;;;;;;;;;;5014293;28;20699;-62
2022/04/02 10:30:04;;;;;;;5.27;2.30;;;;;;;;;;5014153;28;20216;-62
2022/04/02 10:32:32;;;;;;;3.87;1.73;;;;;;;;;;5012772;28;20567;-62
2022/04/02 10:35:03;;;;;;;7.63;1.90;;;;;;;;;;5013055;28;20232;-62
2022/04/02 10:37:31;;;;;;;4.47;1.77;;;;;;;;;;5012974;28;20219;-62
2022/04/02 10:39:56;;;;;;;3.30;1.50;;;;;;;;;;5013003;28;20216;-62
2022/04/02 10:42:22;;;;;;;4.03;1.50;;;;;;;;;;5013699;28;20212;-62
2022/04/02 10:44:52;;;;;;;3.22;1.60;;;;;;;;;;5013107;28;20240;-62
2022/04/02 10:47:18;;;;;;;4.17;1.63;;;;;;;;;;5012214;28;20251;-62
2022/04/02 10:49:43;;;;;;;4.30;1.57;;;;;;;;;;5012753;28;20217;-62
2022/04/02 10:52:10;;;;;;;2.87;1.50;;;;;;;;;;5011033;28;20228;-62
2022/04/02 10:54:35;;;;;;;3.07;1.60;;;;;;;;;;5014134;28;20220;-62
2022/04/02 10:57:01;;;;;;;4.60;1.43;;;;;;;;;;5012034;28;20224;-61
2022/04/02 10:59:30;;;;;;;3.63;1.50;;;;;;;;;;5012630;28;20212;-62
2022/04/02 11:02:00;;;;;;;7.47;4.25;;;;;;;;;;5013612;28;20671;-62
2022/04/02 11:04:29;;;;;;;18.03;11.77;;;;;;;;;;5005074;28;21564;-62
2022/04/02 11:06:55;;;;;;;35.77;20.83;;;;;;;;;;4998973;28;20209;-62
2022/04/02 11:09:24;;;;;;;42.30;29.67;;;;;;;;;;4993518;28;20212;-62
2022/04/02 11:11:50;;;;;;;3.97;1.60;;;;;;;;;;4995324;28;20240;-62
2022/04/02 11:14:20;;;;;;;4.40;1.53;;;;;;;;;;5010735;28;20270;-62
2022/04/02 11:16:45;;;;;;;4.50;2.40;;;;;;;;;;5013487;28;20783;-62
2022/04/02 11:22:01;;;;;;;2.90;1.53;;;;;;;;;;5012506;28;20222;-62
2022/04/02 11:24:28;;;;;;;3.73;1.70;;;;;;;;;;5009446;28;20212;-62
2022/04/02 11:26:53;;;;;;;5.60;3.07;;;;;;;;;;4991569;28;20225;-62
2022/04/02 11:29:19;;;;;;;4.90;3.03;;;;;;;;;;4991929;28;20300;-62
2022/04/02 11:31:45;;;;;;;2.50;1.70;;;;;;;;;;4992302;28;20252;-62
2022/04/02 11:34:10;;;;;;;2.87;1.67;;;;;;;;;;4991888;28;20684;-61
2022/04/02 11:36:36;;;;;;;3.67;1.50;;;;;;;;;;4993597;28;20217;-62
2022/04/02 11:39:02;;;;;;;2.97;1.70;;;;;;;;;;4992352;28;20263;-62
2022/04/02 11:41:31;;;;;;;3.23;1.60;;;;;;;;;;4992843;28;20209;-62
2022/04/02 11:44:04;;;;;;;1.97;1.20;;;;;;;;;;4993486;28;20221;-62
2022/04/02 11:46:30;;;;;;;3.47;1.47;;;;;;;;;;4991985;28;20739;-62
2022/04/02 11:48:56;;;;;;;2.70;1.50;;;;;;;;;;5009419;28;20350;-62
2022/04/02 11:51:27;;;;;;;3.00;1.40;;;;;;;;;;5012313;28;20256;-62
2022/04/02 11:53:53;;;;;;;2.03;1.40;;;;;;;;;;5010941;28;20212;-62
2022/04/02 11:56:22;;;;;;;4.40;1.40;;;;;;;;;;5007060;28;20227;-62
2022/04/02 11:58:47;;;;;;;2.97;1.37;;;;;;;;;;5000302;28;20254;-62
2022/04/02 12:01:13;;;;;;;3.30;1.37;;;;;;;;;;5020530;28;20223;-62
2022/04/02 12:03:38;;;;;;;2.27;1.60;;;;;;;;;;5030071;28;20758;-62
2022/04/02 12:06:10;;;;;;;4.03;1.50;;;;;;;;;;5030921;28;20291;-62
2022/04/02 12:08:35;;;;;;;2.50;1.47;;;;;;;;;;5031966;28;20298;-62
2022/04/02 12:11:00;;;;;;;2.20;1.50;;;;;;;;;;5032721;28;20255;-62
2022/04/02 12:13:26;;;;;;;3.80;1.57;;;;;;;;;;5016724;28;20584;-62
2022/04/02 12:16:03;;;;;;;5.27;2.27;;;;;;;;;;5011900;28;20275;-62
2022/04/02 12:18:28;;;;;;;3.17;1.80;;;;;;;;;;5011843;28;20216;-63
2022/04/02 12:21:00;;;;;;;4.60;2.00;;;;;;;;;;5011196;28;20266;-60
2022/04/02 12:23:25;;;;;;;6.00;2.23;;;;;;;;;;5011349;28;20220;-60
2022/04/02 12:25:55;;;;;;;4.63;2.10;;;;;;;;;;5011370;28;20561;-60
2022/04/02 12:28:20;;;;;;;6.87;1.73;;;;;;;;;;5012203;28;20223;-60
2022/04/02 12:30:48;;;;;;;5.03;2.30;;;;;;;;;;5014033;28;20277;-60
2022/04/02 12:33:15;;;;;;;5.60;2.43;;;;;;;;;;4991686;28;20686;-60
2022/04/02 12:35:41;;;;;;;4.97;1.77;;;;;;;;;;4998832;28;20250;-60
2022/04/02 12:38:07;;;;;;;3.73;2.03;;;;;;;;;;4995173;28;20592;-59
2022/04/02 12:40:33;;;;;;;4.03;2.00;;;;;;;;;;5000171;28;20695;-59
2022/04/02 12:43:02;;;;;;;5.37;1.80;;;;;;;;;;5006130;28;20213;-59
2022/04/02 12:45:28;;;;;;;4.13;1.73;;;;;;;;;;5005512;28;20212;-60
2022/04/02 12:47:54;;;;;;;3.57;1.70;;;;;;;;;;5005505;28;20220;-60
2022/04/02 12:50:20;;;;;;;4.00;1.70;;;;;;;;;;5004986;28;20692;-60
2022/04/02 12:52:47;;;;;;;4.53;1.90;;;;;;;;;;5005470;28;20228;-59
2022/04/02 12:55:19;;;;;;;3.93;1.67;;;;;;;;;;5004369;28;20217;-60
2022/04/02 12:58:01;;;;;;;3.33;1.80;;;;;;;;;;4999157;28;20775;-60
2022/04/02 13:00:27;;;;;;;4.40;1.73;;;;;;;;;;4997916;28;20295;-60
2022/04/02 13:02:54;;;;;;;6.43;1.80;;;;;;;;;;5000323;28;20676;-60
2022/04/02 13:05:20;;;;;;;2.30;1.40;;;;;;;;;;5005008;28;20213;-60
2022/04/02 13:08:02;;;;;;;3.30;1.40;;;;;;;;;;5004489;28;20672;-60
2022/04/02 13:10:28;;;;;;;3.50;1.52;;;;;;;;;;5006078;28;20204;-60
2022/04/02 13:12:53;;;;;;;3.17;1.60;;;;;;;;;;5007714;28;20306;-60
2022/04/02 13:15:19;;;;;;;2.92;1.73;;;;;;;;;;5008840;28;20205;-60
2022/04/02 13:20:28;;;;;;;3.33;1.38;;;;;;;;;;5006684;28;20220;-60
2022/04/02 13:20:34;;;;;;;4.53;1.50;;;;;;;;;;5000830;28;20672;-60
2022/04/02 13:22:59;;;;;;;3.38;1.90;;;;;;;;;;4999429;28;20228;-60
2022/04/02 13:25:24;;;;;;;4.43;1.73;;;;;;;;;;5001131;28;20228;-60
2022/04/02 13:28:06;;;;;;;3.65;1.67;;;;;;;;;;5008992;28;20663;-59
2022/04/02 13:30:34;;;;;;;3.20;1.73;;;;;;;;;;5008853;28;20228;-60
2022/04/02 13:33:09;;;;;;;5.25;1.70;;;;;;;;;;5007257;28;20236;-60
2022/04/02 13:35:35;;;;;;;4.90;1.70;;;;;;;;;;5008664;28;20208;-59
2022/04/02 13:38:15;;;;;;;3.07;1.50;;;;;;;;;;5008502;28;20216;-60
2022/04/02 13:40:40;;;;;;;2.57;1.57;;;;;;;;;;5002562;28;20220;-60
2022/04/02 13:43:08;;;;;;;4.63;1.50;;;;;;;;;;4983175;28;20275;-59
2022/04/02 13:45:34;;;;;;;5.13;2.08;;;;;;;;;;5000850;28;20255;-59
2022/04/02 13:48:01;;;;;;;3.40;1.60;;;;;;;;;;5001516;28;20216;-59
2022/04/02 13:50:27;;;;;;;4.57;1.80;;;;;;;;;;5008327;28;20244;-60
2022/04/02 13:52:57;;;;;;;4.15;1.55;;;;;;;;;;5008454;28;20236;-60
2022/04/02 13:55:22;;;;;;;2.60;1.50;;;;;;;;;;5006241;28;20582;-60
2022/04/02 13:57:49;;;;;;;6.30;1.80;;;;;;;;;;5008511;28;20255;-59
2022/04/02 14:00:14;;;;;;;3.47;1.50;;;;;;;;;;5008282;28;20244;-59
2022/04/02 14:02:43;;;;;;;2.73;1.73;;;;;;;;;;5006189;28;20250;-59
2022/04/02 14:05:20;;;;;;;7.28;2.17;;;;;;;;;;5000656;28;20307;-60
2022/04/02 14:07:51;;;;;;;4.20;1.53;;;;;;;;;;5000580;28;20226;-59
2022/04/02 14:10:16;;;;;;;4.67;1.80;;;;;;;;;;4999937;28;20770;-59
2022/04/02 14:12:42;;;;;;;4.70;1.60;;;;;;;;;;5002216;28;20375;-59
2022/04/02 14:15:08;;;;;;;3.20;1.30;;;;;;;;;;5007972;28;20216;-59
2022/04/02 14:17:33;;;;;;;2.73;1.37;;;;;;;;;;5007475;28;20563;-60
2022/04/02 14:20:01;;;;;;;4.37;1.40;;;;;;;;;;5006781;28;20227;-60
2022/04/02 14:22:26;;;;;;;4.00;1.30;;;;;;;;;;5007325;28;20212;-59
2022/04/02 14:24:54;;;;;;;3.33;1.50;;;;;;;;;;5008343;28;20224;-59
2022/04/02 14:27:23;;;;;;;2.50;1.37;;;;;;;;;;5001428;28;20213;-59
2022/04/02 14:29:48;;;;;;;3.35;1.30;;;;;;;;;;4999437;28;20458;-59
2022/04/02 14:32:32;;;;;;;3.93;1.50;;;;;;;;;;4999433;28;20240;-59
2022/04/02 14:34:57;;;;;;;3.63;1.40;;;;;;;;;;5007271;28;20220;-59
2022/04/02 14:37:23;;;;;;;2.07;1.07;;;;;;;;;;5006938;28;20211;-60
2022/04/02 14:40:09;;;;;;;3.90;1.30;;;;;;;;;;5008138;28;20212;-60
2022/04/02 14:42:50;;;;;;;3.40;1.37;;;;;;;;;;5007150;28;20226;-60
2022/04/02 14:45:24;;;;;;;4.33;1.10;;;;;;;;;;5005563;28;20224;-60
2022/04/02 14:47:50;;;;;;;3.73;1.27;;;;;;;;;;5005978;28;20243;-60
2022/04/02 14:50:20;;;;;;;4.07;1.40;;;;;;;;;;4999841;28;20318;-60